EW9037 Weather Reports


Display with metric or nautical units.
time (UTC)temp
F
wind
direction
speed
MPH
gust
MPH
rain 1hr
in
rain 24hr
in
rain mn
in
humidity
%
barometer
mb
20180225113301 46 281 8.0 19.0 0.00 2.12 0.05 83 1014.6
20180225111854 47 292 10.0 18.0 0.00 2.12 0.05 82 1014.3
20180225110252 48 291 9.0 16.0 0.00 2.12 0.05 83 1013.9
20180225104750 48 295 8.0 18.0 0.00 2.12 0.05 84 1013.6
20180225103244 49 284 9.0 20.0 0.00 2.12 0.05 83 1013.0
20180225101739 50 287 14.0 24.0 0.00 2.12 0.05 80 1012.5
20180225100238 51 302 13.0 28.0 0.00 2.12 0.05 82 1012.1
20180225094732 52 287 9.0 23.0 0.00 2.12 0.05 87 1011.5
20180225093228 54 302 16.0 29.0 0.00 2.12 0.05 87 1011.1
20180225091735 58 289 15.0 27.0 0.00 2.12 0.05 86 1009.8
20180225090221 59 225 9.0 22.0 0.00 2.12 0.05 86 1008.9
20180225084719 58 278 12.0 22.0 0.00 2.13 0.05 91 1009.0
20180225083217 58 239 11.0 16.0 0.00 2.13 0.05 84 1008.9
20180225081714 58 245 10.0 14.0 0.00 2.13 0.05 83 1008.7
20180225080210 58 228 9.0 18.0 0.00 2.13 0.05 83 1008.3
20180225074709 58 226 7.0 16.0 0.00 2.13 0.05 84 1007.7
20180225073208 58 224 10.0 15.0 0.00 2.13 0.05 84 1007.8
20180225071707 58 222 9.0 15.0 0.01 2.13 0.05 84 1008.1
20180225070207 58 222 9.0 15.0 0.02 2.13 0.05 84 1007.7
20180225064703 58 226 9.0 14.0 0.03 2.13 0.05 84 1007.1
20180225063201 58 208 9.0 17.0 0.04 2.13 0.05 84 1007.3
20180225061700 59 226 6.0 13.0 0.02 2.11 0.03 84 1007.6
20180225060158 59 172 7.0 17.0 0.03 2.11 0.03 84 1006.8
20180225054655 58 197 5.0 11.0 0.02 2.13 0.02 84 1008.0
20180225053156 58 228 7.0 12.0 0.03 2.12 0.01 84 1008.0
20180225051653 58 203 4.0 8.0 0.07 2.12 0.01 84 1007.5
20180225050147 57 205 5.0 7.0 0.09 2.11 0.00 84 1007.5
20180225044645 57 230 5.0 9.0 0.15 2.11 2.11 84 1007.1
20180225043145 57 131 2.0 9.0 0.25 2.09 2.09 84 1007.0
20180225041644 58 148 4.0 11.0 0.56 2.04 2.04 83 1007.9
20180225040143 58 167 4.0 11.0 0.57 2.02 2.02 83 1007.9
20180225034643 58 246 9.0 19.0 0.56 1.96 1.96 83 1008.4
20180225033145 59 256 13.0 33.0 0.53 1.83 1.83 85 1008.9
20180225031639 59 111 3.0 8.0 0.33 1.48 1.48 83 1006.4
20180225030138 59 155 4.0 9.0 0.35 1.44 1.44 83 1006.7
20180225024633 58 263 7.0 13.0 0.32 1.39 1.39 84 1007.9
20180225023129 58 203 6.0 14.0 0.33 1.29 1.29 84 1007.0
20180225021624 57 205 5.0 13.0 0.22 1.14 1.14 84 1007.6
20180225020229 56 278 8.0 11.0 0.17 1.09 1.09 84 1007.4
20180225014618 56 143 0.0 6.0 0.15 1.07 1.07 84 1007.0
20180225013126 55 147 1.0 7.0 0.04 0.96 0.96 84 1007.2
20180225011612 55 66 0.0 3.0 0.02 0.93 0.93 84 1008.1
20180225010236 55 65 1.0 6.0 0.05 0.92 0.92 84 1008.4
20180225004627 54 94 1.0 4.0 0.09 0.92 0.92 84 1008.6
20180225003030 53 77 2.0 4.0 0.09 0.92 0.92 84 1008.9
20180225001527 53 129 1.0 3.0 0.11 0.91 0.91 84 1009.8
20180225000024 53 231 0.0 2.0 0.15 0.87 0.87 84 1009.9
20180224234521 53 165 1.0 3.0 0.13 0.83 0.83 85 1010.6
20180224233021 53 74 0.0 2.0 0.13 0.82 0.82 85 1010.5
20180224231518 53 154 0.0 0.0 0.18 0.80 0.80 85 1010.9
20180224230019 53 115 0.0 0.0 0.26 0.72 0.72 85 1011.0
20180224224520 53 90 0.0 8.0 0.41 0.70 0.70 87 1010.6
20180224223015 52 89 2.0 5.0 0.41 0.69 0.69 89 1010.5
20180224221515 53 29 0.0 6.0 0.35 0.61 0.61 89 1011.6
20180224220011 53 77 2.0 3.0 0.19 0.45 0.45 90 1012.0
20180224214511 53 153 0.0 3.0 0.03 0.28 0.28 90 1012.3
20180224213012 53 95 2.0 4.0 0.02 0.28 0.28 90 1012.0
20180224211507 53 107 1.0 5.0 0.00 0.26 0.26 90 1012.2
20180224210009 52 110 2.0 6.0 0.00 0.26 0.26 90 1012.2
20180224204505 52 96 4.0 6.0 0.01 0.26 0.26 90 1012.2
20180224203004 52 162 2.0 7.0 0.02 0.26 0.26 90 1012.5
20180224201503 52 101 3.0 10.0 0.04 0.26 0.26 90 1012.6
20180224200002 52 84 5.0 10.0 0.04 0.26 0.26 90 1012.6
20180224194459 52 64 4.0 8.0 0.03 0.25 0.25 90 1012.9
20180224192959 52 102 4.0 8.0 0.02 0.24 0.24 91 1013.2
20180224191455 52 129 3.0 8.0 0.01 0.22 0.22 91 1013.4
20180224185953 52 82 4.0 8.0 0.02 0.22 0.22 91 1013.7
20180224184450 52 141 5.0 8.0 0.03 0.22 0.22 91 1014.4
20180224182949 51 71 3.0 8.0 0.05 0.22 0.22 91 1014.9
20180224181448 51 68 7.0 10.0 0.05 0.21 0.21 92 1015.1
20180224175945 51 83 6.0 10.0 0.04 0.20 0.20 92 1015.7
20180224174440 51 69 7.0 11.0 0.04 0.19 0.19 92 1016.2
20180224172937 50 110 2.0 8.0 0.02 0.17 0.17 92 1016.8
20180224171437 50 76 7.0 10.0 0.01 0.16 0.16 92 1016.8
20180224165936 50 78 6.0 11.0 0.02 0.20 0.16 92 1017.5
20180224164432 50 79 5.0 11.0 0.02 0.19 0.15 92 1018.0
20180224162933 50 110 3.0 8.0 0.02 0.19 0.15 92 1018.2
20180224161434 50 42 4.0 9.0 0.02 0.19 0.15 92 1018.4
20180224155933 50 46 6.0 11.0 0.01 0.30 0.14 92 1018.2
20180224154430 49 62 5.0 11.0 0.02 0.28 0.13 92 1018.3
20180224152930 49 43 7.0 18.0 0.07 0.28 0.13 92 1018.5
20180224151430 49 41 10.0 17.0 0.08 0.28 0.13 90 1018.8
20180224145929 49 44 6.0 10.0 0.08 0.49 0.13 89 1019.4
20180224144427 49 359 3.0 10.0 0.07 0.47 0.11 90 1019.3
20180224142926 49 20 8.0 13.0 0.02 0.42 0.06 90 1018.6
20180224141421 49 342 3.0 6.0 0.01 0.41 0.05 90 1018.7
20180224135922 49 28 4.0 6.0 0.01 0.63 0.05 90 1018.4
20180224134418 49 350 3.0 4.0 0.00 0.62 0.04 90 1018.3
20180224132918 49 37 3.0 5.0 0.00 0.62 0.04 90 1017.9
20180224131418 50 46 0.0 0.0 0.00 0.62 0.04 91 1018.1
20180224125917 49 53 3.0 6.0 0.00 0.62 0.04 91 1017.8
20180224124417 49 47 5.0 7.0 0.00 0.62 0.04 90 1017.8
20180224122916 49 58 4.0 6.0 0.00 0.62 0.04 91 1017.7
20180224121416 49 56 5.0 7.0 0.00 0.62 0.04 91 1017.8
20180224115915 49 51 4.0 5.0 0.00 0.62 0.04 91 1018.0
20180224114409 49 51 8.0 10.0 0.00 0.62 0.04 90 1018.4